createdAt,value
2022-09-23T00:02:26.773Z,7.68
2022-09-23T00:05:58.787Z,7.67
2022-09-23T00:09:24.489Z,7.65
2022-09-23T00:13:00.765Z,7.61
2022-09-23T00:16:38.872Z,7.52
2022-09-23T00:20:15.813Z,7.43
2022-09-23T00:24:09.951Z,7.28
2022-09-23T00:27:30.968Z,7.19
2022-09-23T00:31:27.257Z,7.19
2022-09-23T00:34:48.023Z,7.24
2022-09-23T00:38:24.673Z,7.33
2022-09-23T00:42:01.536Z,7.40
2022-09-23T00:45:39.660Z,7.40
2022-09-23T00:49:30.277Z,7.31
2022-09-23T00:52:54.230Z,7.19
2022-09-23T00:56:32.161Z,7.11
2022-09-23T01:00:24.406Z,7.04
2022-09-23T01:03:46.545Z,6.94
2022-09-23T01:07:21.885Z,6.82
2022-09-23T01:11:45.718Z,6.62
2022-09-23T01:15:33.405Z,6.39
2022-09-23T01:19:18.789Z,6.24
2022-09-23T01:22:54.441Z,6.13
2022-09-23T01:27:09.528Z,6.09
2022-09-23T01:30:52.909Z,6.09
2022-09-23T01:34:26.522Z,6.09
2022-09-23T01:38:34.195Z,6.06
2022-09-23T01:42:17.722Z,5.98
2022-09-23T01:45:54.497Z,5.89
2022-09-23T01:49:29.050Z,5.81
2022-09-23T01:52:57.085Z,5.72
2022-09-23T01:57:01.855Z,5.62
2022-09-23T02:00:44.038Z,5.58
2022-09-23T02:04:17.543Z,5.57
2022-09-23T02:07:53.849Z,5.60
2022-09-23T02:11:19.589Z,5.62
2022-09-23T02:15:07.188Z,5.60
2022-09-23T02:18:42.094Z,5.56
2022-09-23T02:22:15.547Z,5.51
2022-09-23T02:25:57.484Z,5.47
2022-09-23T02:29:23.684Z,5.44
2022-09-23T02:33:34.477Z,5.42
2022-09-23T02:37:09.682Z,5.41
2022-09-23T02:40:38.875Z,5.44
2022-09-23T02:44:28.319Z,5.49
2022-09-23T02:48:16.258Z,5.49
2022-09-23T02:51:38.275Z,5.49
2022-09-23T02:55:17.988Z,5.48
2022-09-23T02:58:53.574Z,5.44
2022-09-23T03:02:52.637Z,5.37
2022-09-23T03:06:29.535Z,5.33
2022-09-23T03:10:09.726Z,5.31
2022-09-23T03:14:17.534Z,5.30
2022-09-23T03:18:06.415Z,5.30
2022-09-23T03:21:37.128Z,5.31
2022-09-23T03:25:26.362Z,5.34
2022-09-23T03:28:48.580Z,5.39
2022-09-23T03:32:28.014Z,5.41
2022-09-23T03:36:26.952Z,5.39
2022-09-23T03:39:54.228Z,5.34
2022-09-23T03:43:25.512Z,5.30
2022-09-23T03:47:03.066Z,5.24
2022-09-23T03:50:39.304Z,5.19
2022-09-23T03:54:15.798Z,5.16
2022-09-23T03:57:52.467Z,5.13
2022-09-23T04:01:29.793Z,5.11
2022-09-23T04:05:06.972Z,5.07
2022-09-23T04:08:42.906Z,5.06
2022-09-23T04:12:19.575Z,5.05
2022-09-23T04:15:56.574Z,5.01
2022-09-23T04:19:33.106Z,5.00
2022-09-23T04:23:10.052Z,4.99
2022-09-23T04:26:51.364Z,4.98
2022-09-23T04:30:23.567Z,5.06
2022-09-23T04:34:01.011Z,5.12
2022-09-23T04:37:55.966Z,5.12
2022-09-23T04:41:34.735Z,5.12
2022-09-23T04:44:55.126Z,5.15
2022-09-23T04:48:32.286Z,5.15
2022-09-23T04:52:08.699Z,5.18
2022-09-23T04:56:08.756Z,5.28
2022-09-23T04:59:30.240Z,5.36
2022-09-23T05:03:07.201Z,5.45
2022-09-23T05:06:45.398Z,5.53
2022-09-23T05:10:19.495Z,5.57
2022-09-23T05:13:56.356Z,5.56
2022-09-23T05:17:51.958Z,5.56
2022-09-23T05:21:31.658Z,5.48
2022-09-23T05:25:10.778Z,5.45
2022-09-23T05:28:50.636Z,5.47
2022-09-23T05:32:11.346Z,5.44
2022-09-23T05:36:07.606Z,5.45
2022-09-23T05:39:27.816Z,5.50
2022-09-23T05:43:04.599Z,5.55
2022-09-23T05:46:41.299Z,5.61
2022-09-23T05:50:37.168Z,5.66
2022-09-23T05:53:59.053Z,5.70
2022-09-23T05:57:35.007Z,5.78
2022-09-23T06:01:24.898Z,5.85
2022-09-23T06:05:07.297Z,5.86
2022-09-23T06:08:27.882Z,6.02
2022-09-23T06:12:06.515Z,6.17
2022-09-23T06:15:43.757Z,6.30
2022-09-23T06:19:18.191Z,6.41
2022-09-23T06:23:13.691Z,6.51
2022-09-23T06:26:53.005Z,6.62
2022-09-23T06:30:33.538Z,6.72
2022-09-23T06:34:06.086Z,6.79
2022-09-23T06:37:34.259Z,6.91
2022-09-23T06:41:12.184Z,7.03
2022-09-23T06:44:47.497Z,7.11
2022-09-23T06:48:27.079Z,7.16
2022-09-23T06:52:01.191Z,7.19
2022-09-23T06:56:01.942Z,7.27
2022-09-23T06:59:41.341Z,7.37
2022-09-23T07:03:05.974Z,7.47
2022-09-23T07:06:38.507Z,7.63
2022-09-23T07:10:34.612Z,7.78
2022-09-23T07:14:13.753Z,7.85
2022-09-23T07:17:35.076Z,7.86
2022-09-23T07:21:17.083Z,7.91
2022-09-23T07:24:48.041Z,7.97
2022-09-23T07:28:29.176Z,8.05
2022-09-23T07:32:22.156Z,8.09
2022-09-23T07:35:42.683Z,8.17
2022-09-23T07:39:19.718Z,8.24
2022-09-23T07:43:15.097Z,8.42
2022-09-23T07:46:37.204Z,8.61
2022-09-23T07:50:12.197Z,8.69
2022-09-23T07:53:51.279Z,8.72
2022-09-23T07:57:25.753Z,8.79
2022-09-23T08:01:05.505Z,8.91
2022-09-23T08:04:39.409Z,9.00
2022-09-23T08:08:17.365Z,9.00
2022-09-23T08:12:16.254Z,9.14
2022-09-23T08:15:37.080Z,9.18
2022-09-23T08:19:14.237Z,9.18
2022-09-23T08:22:51.378Z,9.30
2022-09-23T08:26:28.931Z,9.42
2022-09-23T08:30:23.069Z,9.52
2022-09-23T08:34:03.037Z,9.61
2022-09-23T08:37:23.573Z,9.69
2022-09-23T08:41:27.910Z,9.74
2022-09-23T08:44:59.762Z,9.74
2022-09-23T08:48:32.860Z,9.85
2022-09-23T08:52:19.910Z,9.97
2022-09-23T08:55:48.732Z,10.04
2022-09-23T08:59:37.979Z,10.20
2022-09-23T09:02:59.552Z,10.34
2022-09-23T09:06:53.459Z,10.39
2022-09-23T09:10:46.768Z,10.46
2022-09-23T09:14:27.399Z,10.54
2022-09-23T09:18:12.214Z,10.72
2022-09-23T09:21:42.536Z,10.90
2022-09-23T09:25:36.494Z,10.91
2022-09-23T09:29:30.842Z,10.81
2022-09-23T09:33:16.027Z,10.98
2022-09-23T09:36:50.105Z,11.29
2022-09-23T09:40:20.394Z,11.60
2022-09-23T09:43:56.421Z,11.81
2022-09-23T09:48:11.075Z,11.86
2022-09-23T09:51:32.530Z,11.78
2022-09-23T09:55:11.956Z,11.92
2022-09-23T09:58:51.786Z,12.09
2022-09-23T10:02:30.648Z,12.29
2022-09-23T10:05:59.802Z,12.32
2022-09-23T10:09:38.639Z,12.22
2022-09-23T10:13:16.280Z,12.15
2022-09-23T10:17:05.324Z,12.06
2022-09-23T10:20:36.317Z,11.95
2022-09-23T10:24:06.541Z,11.85
2022-09-23T10:27:40.620Z,12.04
2022-09-23T10:31:30.214Z,12.37
2022-09-23T10:35:09.619Z,12.71
2022-09-23T10:38:30.935Z,12.98
2022-09-23T10:43:02.558Z,13.21
2022-09-23T10:47:34.313Z,13.53
2022-09-23T10:50:59.480Z,13.17
2022-09-23T10:55:21.337Z,12.85
2022-09-23T10:58:48.478Z,12.71
2022-09-23T11:03:15.347Z,12.63
2022-09-23T11:07:20.738Z,12.58
2022-09-23T11:11:18.445Z,12.71
2022-09-23T11:14:54.541Z,13.02
2022-09-23T11:18:22.646Z,13.43
2022-09-23T11:22:36.798Z,13.85
2022-09-23T11:26:32.196Z,14.04
2022-09-23T11:30:19.359Z,13.67
2022-09-23T11:34:15.449Z,13.47
2022-09-23T11:38:00.530Z,13.42
2022-09-23T11:41:38.051Z,13.41
2022-09-23T11:45:07.035Z,13.51
2022-09-23T11:48:46.304Z,13.73
2022-09-23T11:52:47.466Z,13.99
2022-09-23T11:56:33.626Z,14.32
2022-09-23T12:00:26.075Z,14.64
2022-09-23T12:04:20.577Z,14.74
2022-09-23T12:07:57.850Z,14.57
2022-09-23T12:11:49.979Z,14.63
2022-09-23T12:15:26.416Z,15.07
2022-09-23T12:19:04.557Z,15.38
2022-09-23T12:23:09.140Z,15.77
2022-09-23T12:26:32.632Z,16.22
2022-09-23T12:30:30.060Z,16.36
2022-09-23T12:33:53.799Z,16.56
2022-09-23T12:37:38.941Z,16.69
2022-09-23T12:41:28.707Z,16.99
2022-09-23T12:44:50.732Z,17.09
2022-09-23T12:48:48.637Z,17.39
2022-09-23T12:52:12.163Z,17.53
2022-09-23T12:55:47.001Z,17.72
2022-09-23T12:59:50.825Z,17.89
2022-09-23T13:03:31.768Z,17.94
2022-09-23T13:07:16.418Z,18.02
2022-09-23T13:10:41.416Z,18.06
2022-09-23T13:14:33.842Z,17.87
2022-09-23T13:18:23.210Z,17.84
2022-09-23T13:22:08.241Z,18.07
2022-09-23T13:25:50.819Z,18.18
2022-09-23T13:29:25.850Z,18.59
2022-09-23T13:33:16.041Z,19.06
2022-09-23T13:36:55.574Z,19.57
2022-09-23T13:40:36.411Z,20.44
2022-09-23T13:43:59.582Z,21.38
2022-09-23T13:47:59.548Z,22.52
2022-09-23T13:51:39.136Z,23.41
2022-09-23T13:54:59.918Z,24.06
2022-09-23T13:58:36.678Z,24.11
2022-09-23T14:02:16.872Z,22.67
2022-09-23T14:06:14.038Z,21.59
2022-09-23T14:09:36.609Z,20.56
2022-09-23T14:13:41.567Z,20.20
2022-09-23T14:17:03.112Z,21.37
2022-09-23T14:20:50.293Z,22.84
2022-09-23T14:24:38.055Z,23.67
2022-09-23T14:28:00.678Z,24.29
2022-09-23T14:31:36.596Z,24.89
2022-09-23T14:35:22.344Z,25.13
2022-09-23T14:38:52.760Z,25.18
2022-09-23T14:42:27.580Z,25.28
2022-09-23T14:46:03.681Z,25.13
2022-09-23T14:50:07.713Z,24.60
2022-09-23T14:53:46.392Z,23.48
2022-09-23T14:57:29.340Z,22.74
2022-09-23T15:00:58.555Z,22.57
2022-09-23T15:04:45.383Z,22.33
2022-09-23T15:08:06.308Z,21.81
2022-09-23T15:12:06.299Z,20.76
2022-09-23T15:15:30.764Z,19.79
2022-09-23T15:19:04.040Z,19.10
2022-09-23T15:22:59.310Z,18.58
2022-09-23T15:26:40.698Z,18.13
2022-09-23T15:30:15.443Z,17.92
2022-09-23T15:33:57.675Z,17.79
2022-09-23T15:37:18.475Z,17.58
2022-09-23T15:40:55.647Z,17.27
2022-09-23T15:44:32.772Z,16.98
2022-09-23T15:48:13.986Z,16.66
2022-09-23T15:51:45.536Z,16.32
2022-09-23T15:55:41.295Z,16.05
2022-09-23T15:59:02.024Z,15.75
2022-09-23T16:02:57.676Z,15.51
2022-09-23T16:06:20.333Z,15.21
2022-09-23T16:09:58.674Z,14.85
2022-09-23T16:13:32.518Z,14.44
2022-09-23T16:17:13.990Z,14.08
2022-09-23T16:21:07.047Z,13.78
2022-09-23T16:24:28.444Z,13.46
2022-09-23T16:28:04.927Z,13.13
2022-09-23T16:32:00.453Z,12.84
2022-09-23T16:35:27.001Z,12.57
2022-09-23T16:39:17.760Z,12.30
2022-09-23T16:42:39.307Z,11.98
2022-09-23T16:46:17.425Z,11.69
2022-09-23T16:49:52.496Z,11.38
2022-09-23T16:53:49.048Z,11.14
2022-09-23T16:57:29.391Z,10.94
2022-09-23T17:01:15.415Z,10.72
2022-09-23T17:04:37.583Z,10.51
2022-09-23T17:08:33.633Z,10.33
2022-09-23T17:12:16.859Z,10.14
2022-09-23T17:15:41.525Z,10.00
2022-09-23T17:19:34.132Z,9.87
2022-09-23T17:22:55.332Z,9.74
2022-09-23T17:26:31.729Z,9.60
2022-09-23T17:30:09.361Z,9.49
2022-09-23T17:33:45.147Z,9.40
2022-09-23T17:37:40.752Z,9.33
2022-09-23T17:41:02.516Z,9.24
2022-09-23T17:44:58.761Z,9.08
2022-09-23T17:48:20.279Z,8.92
2022-09-23T17:51:57.023Z,8.78
2022-09-23T17:55:33.220Z,8.67
2022-09-23T17:59:29.019Z,8.54
2022-09-23T18:03:08.732Z,8.41
2022-09-23T18:06:31.906Z,8.28
2022-09-23T18:10:24.844Z,8.17
2022-09-23T18:13:52.553Z,8.03
2022-09-23T18:17:21.690Z,7.95
2022-09-23T18:21:03.257Z,7.89
2022-09-23T18:24:54.149Z,7.82
2022-09-23T18:28:14.577Z,7.80
2022-09-23T18:31:52.384Z,7.82
2022-09-23T18:35:28.633Z,7.82
2022-09-23T18:39:05.398Z,7.79
2022-09-23T18:42:41.909Z,7.70
2022-09-23T18:46:21.215Z,7.60
2022-09-23T18:50:33.129Z,7.48
2022-09-23T18:54:12.690Z,7.38
2022-09-23T18:57:33.547Z,7.27
2022-09-23T19:01:10.470Z,7.16
2022-09-23T19:04:47.781Z,7.07
2022-09-23T19:08:24.123Z,7.03
2022-09-23T19:12:03.482Z,7.02
2022-09-23T19:15:37.354Z,7.00
2022-09-23T19:19:33.037Z,6.95
2022-09-23T19:22:54.309Z,6.89
2022-09-23T19:26:37.740Z,6.81
2022-09-23T19:30:07.772Z,6.72
2022-09-23T19:33:51.558Z,6.62
2022-09-23T19:37:21.079Z,6.53
2022-09-23T19:41:16.254Z,6.44
2022-09-23T19:44:40.121Z,6.37
2022-09-23T19:48:13.988Z,6.32
2022-09-23T19:51:51.561Z,6.34
2022-09-23T19:55:28.602Z,6.21
2022-09-23T19:59:23.346Z,6.13
2022-09-23T20:03:02.845Z,6.12
2022-09-23T20:06:42.589Z,6.08
2022-09-23T20:10:03.233Z,6.07
2022-09-23T20:13:41.449Z,6.07
2022-09-23T20:17:19.186Z,6.10
2022-09-23T20:21:14.707Z,6.11
2022-09-23T20:24:35.581Z,6.09
2022-09-23T20:28:31.113Z,6.05
2022-09-23T20:31:51.354Z,6.04
2022-09-23T20:35:32.996Z,5.94
2022-09-23T20:39:10.127Z,5.83
2022-09-23T20:42:41.586Z,5.72
2022-09-23T20:46:18.539Z,5.71
2022-09-23T20:50:14.106Z,5.77
2022-09-23T20:53:53.342Z,5.78
2022-09-23T20:57:15.210Z,5.77
2022-09-23T21:01:10.740Z,5.77
2022-09-23T21:04:50.179Z,5.77
2022-09-23T21:08:12.553Z,5.72
2022-09-23T21:11:47.136Z,5.67
2022-09-23T21:15:24.134Z,5.65
2022-09-23T21:19:20.235Z,5.74
2022-09-23T21:22:40.808Z,5.87
2022-09-23T21:26:36.631Z,6.00
2022-09-23T21:29:58.981Z,6.06
2022-09-23T21:33:36.753Z,6.07
2022-09-23T21:37:11.638Z,6.07
2022-09-23T21:41:10.400Z,6.06
2022-09-23T21:44:31.442Z,6.02
2022-09-23T21:48:08.191Z,6.01
2022-09-23T21:51:44.836Z,6.02
2022-09-23T21:55:40.396Z,5.96
2022-09-23T21:59:20.010Z,5.96
2022-09-23T22:02:59.269Z,6.00
2022-09-23T22:06:22.997Z,6.03
2022-09-23T22:09:56.688Z,6.06
2022-09-23T22:13:34.928Z,6.06
2022-09-23T22:17:12.289Z,6.12
2022-09-23T22:20:47.818Z,6.24
2022-09-23T22:24:23.791Z,6.36
2022-09-23T22:28:19.387Z,6.39
2022-09-23T22:31:59.287Z,6.42
2022-09-23T22:35:20.640Z,6.39
2022-09-23T22:38:59.268Z,6.29
2022-09-23T22:42:34.814Z,6.24
2022-09-23T22:46:11.109Z,6.21
2022-09-23T22:50:08.464Z,6.25
2022-09-23T22:53:48.793Z,6.29
2022-09-23T22:57:10.106Z,6.31
2022-09-23T23:00:46.224Z,6.30
2022-09-23T23:04:23.422Z,6.26
2022-09-23T23:08:18.744Z,6.30
2022-09-23T23:11:58.443Z,6.38
2022-09-23T23:15:19.006Z,6.43
2022-09-23T23:19:16.211Z,6.42
2022-09-23T23:22:36.492Z,6.45
2022-09-23T23:26:33.494Z,6.51
2022-09-23T23:30:13.083Z,6.56
2022-09-23T23:33:53.467Z,6.59
2022-09-23T23:37:32.728Z,6.64
2022-09-23T23:40:53.757Z,6.73
2022-09-23T23:44:34.461Z,6.83
2022-09-23T23:48:28.097Z,6.84
2022-09-23T23:51:49.079Z,6.83
2022-09-23T23:55:44.924Z,6.80
2022-09-23T23:59:05.968Z,6.78
